createdAt,value
2022-10-21T00:03:11.362Z,4.82
2022-10-21T00:07:14.453Z,4.82
2022-10-21T00:11:17.799Z,4.03
2022-10-21T00:15:21.307Z,5.65
2022-10-21T00:19:25.945Z,4.90
2022-10-21T00:23:29.442Z,5.47
2022-10-21T00:27:33.242Z,5.00
2022-10-21T00:31:36.363Z,3.95
2022-10-21T00:35:41.611Z,5.00
2022-10-21T00:39:45.802Z,5.88
2022-10-21T00:44:00.572Z,4.82
2022-10-21T00:48:07.879Z,4.72
2022-10-21T00:52:16.214Z,5.03
2022-10-21T00:56:24.469Z,5.80
2022-10-21T01:00:27.933Z,5.20
2022-10-21T01:04:31.532Z,4.97
2022-10-21T01:08:36.906Z,6.05
2022-10-21T01:12:51.004Z,5.22
2022-10-21T01:17:11.549Z,4.32
2022-10-21T01:21:35.128Z,4.80
2022-10-21T01:26:10.584Z,5.10
2022-10-21T01:30:39.614Z,5.28
2022-10-21T01:34:51.408Z,5.22
2022-10-21T01:39:04.833Z,4.65
2022-10-21T01:43:17.866Z,4.88
2022-10-21T01:47:27.226Z,5.97
2022-10-21T01:51:32.007Z,5.47
2022-10-21T01:55:37.101Z,5.20
2022-10-21T01:59:42.933Z,5.20
2022-10-21T02:03:50.938Z,6.30
2022-10-21T02:07:54.596Z,6.00
2022-10-21T02:12:03.652Z,6.65
2022-10-21T02:16:10.819Z,6.45
2022-10-21T02:20:18.029Z,5.20
2022-10-21T02:24:28.926Z,6.50
2022-10-21T02:28:33.019Z,6.25
2022-10-21T02:32:40.894Z,5.57
2022-10-21T02:36:55.968Z,5.63
2022-10-21T02:41:03.422Z,6.25
2022-10-21T02:45:08.885Z,5.53
2022-10-21T02:49:13.622Z,6.30
2022-10-21T02:53:18.061Z,6.07
2022-10-21T02:57:21.555Z,5.70
2022-10-21T03:01:25.109Z,5.93
2022-10-21T03:05:28.277Z,5.90
2022-10-21T03:09:33.401Z,5.13
2022-10-21T03:13:37.015Z,6.10
2022-10-21T03:17:42.300Z,6.00
2022-10-21T03:21:46.153Z,6.55
2022-10-21T03:25:50.918Z,5.93
2022-10-21T03:29:54.046Z,8.45
2022-10-21T03:33:57.475Z,6.70
2022-10-21T03:38:00.854Z,6.05
2022-10-21T03:42:06.292Z,5.65
2022-10-21T03:46:09.329Z,6.20
2022-10-21T03:50:15.104Z,7.10
2022-10-21T03:54:22.889Z,7.85
2022-10-21T03:58:28.993Z,5.95
2022-10-21T04:02:32.412Z,6.13
2022-10-21T04:06:35.630Z,6.82
2022-10-21T04:10:39.364Z,5.35
2022-10-21T04:14:44.107Z,6.90
2022-10-21T04:18:48.164Z,5.53
2022-10-21T04:22:51.160Z,6.32
2022-10-21T04:26:54.132Z,6.97
2022-10-21T04:30:59.097Z,7.15
2022-10-21T04:35:02.616Z,6.47
2022-10-21T04:39:08.166Z,6.25
2022-10-21T04:43:11.731Z,6.57
2022-10-21T04:47:16.537Z,5.45
2022-10-21T04:51:20.699Z,8.98
2022-10-21T04:55:24.318Z,10.32
2022-10-21T04:59:27.914Z,13.50
2022-10-21T05:03:34.208Z,7.95
2022-10-21T05:07:38.228Z,8.80
2022-10-21T05:11:41.776Z,8.85
2022-10-21T05:15:45.253Z,8.52
2022-10-21T05:19:49.755Z,7.28
2022-10-21T05:23:53.218Z,8.10
2022-10-21T05:27:56.227Z,9.13
2022-10-21T05:31:59.582Z,8.95
2022-10-21T05:36:09.278Z,9.40
2022-10-21T05:40:13.276Z,6.97
2022-10-21T05:44:17.097Z,7.75
2022-10-21T05:48:20.355Z,6.28
2022-10-21T05:52:25.297Z,6.22
2022-10-21T05:56:28.821Z,6.53
2022-10-21T06:00:32.361Z,6.75
2022-10-21T06:04:38.653Z,6.38
2022-10-21T06:08:44.140Z,6.43
2022-10-21T06:12:47.653Z,6.43
2022-10-21T06:16:51.102Z,7.15
2022-10-21T06:20:54.232Z,6.20
2022-10-21T06:24:59.253Z,5.22
2022-10-21T06:29:02.669Z,6.15
2022-10-21T06:33:05.830Z,6.65
2022-10-21T06:37:08.981Z,7.18
2022-10-21T06:41:15.961Z,6.18
2022-10-21T06:45:19.415Z,6.35
2022-10-21T06:49:23.229Z,6.30
2022-10-21T06:53:26.380Z,5.53
2022-10-21T06:57:31.464Z,6.68
2022-10-21T07:06:21.183Z,5.80
2022-10-21T07:10:24.293Z,6.40
2022-10-21T07:14:29.291Z,6.32
2022-10-21T07:18:32.699Z,7.13
2022-10-21T07:22:36.269Z,6.72
2022-10-21T07:26:40.444Z,6.10
2022-10-21T07:30:46.305Z,6.03
2022-10-21T07:34:49.776Z,6.05
2022-10-21T07:38:54.855Z,6.75
2022-10-21T07:42:58.836Z,7.70
2022-10-21T07:47:03.808Z,6.20
2022-10-21T07:51:09.826Z,6.05
2022-10-21T07:55:13.438Z,5.65
2022-10-21T07:59:18.588Z,5.28
2022-10-21T08:03:23.735Z,6.00
2022-10-21T08:07:27.773Z,5.47
2022-10-21T08:11:32.925Z,5.45
2022-10-21T08:15:36.721Z,6.10
2022-10-21T08:19:41.203Z,6.10
2022-10-21T08:23:44.396Z,5.75
2022-10-21T08:27:47.817Z,5.30
2022-10-21T08:31:51.291Z,4.88
2022-10-21T08:35:56.217Z,5.70
2022-10-21T08:39:59.566Z,5.55
2022-10-21T08:44:07.740Z,5.53
2022-10-21T08:48:16.054Z,5.18
2022-10-21T08:52:24.949Z,4.60
2022-10-21T08:56:31.837Z,5.28
2022-10-21T09:00:39.921Z,4.40
2022-10-21T09:04:50.388Z,5.85
2022-10-21T09:09:18.355Z,5.70
2022-10-21T09:13:32.026Z,5.32
2022-10-21T09:17:58.239Z,4.97
2022-10-21T09:22:34.304Z,5.35
2022-10-21T09:26:42.461Z,5.72
2022-10-21T09:30:47.337Z,4.80
2022-10-21T09:34:57.446Z,4.38
2022-10-21T09:39:07.789Z,5.38
2022-10-21T09:43:20.754Z,4.63
2022-10-21T09:51:33.923Z,5.47
2022-10-21T09:55:40.683Z,4.38
2022-10-21T10:00:04.018Z,5.55
2022-10-21T10:04:12.901Z,5.43
2022-10-21T10:08:38.213Z,4.70
2022-10-21T10:12:41.524Z,5.90
2022-10-21T10:16:46.003Z,4.68
2022-10-21T10:21:06.352Z,5.20
2022-10-21T10:25:19.027Z,6.03
2022-10-21T10:29:27.244Z,5.43
2022-10-21T10:33:35.827Z,5.38
2022-10-21T10:37:39.577Z,5.05
2022-10-21T10:41:48.367Z,4.82
2022-10-21T10:45:55.310Z,6.45
2022-10-21T10:50:01.330Z,4.93
2022-10-21T10:54:18.556Z,4.47
2022-10-21T10:58:25.480Z,5.07
2022-10-21T11:02:39.779Z,5.60
2022-10-21T11:06:50.207Z,5.07
2022-10-21T11:10:58.708Z,5.20
2022-10-21T11:15:02.554Z,4.43
2022-10-21T11:19:15.721Z,4.88
2022-10-21T11:23:43.779Z,5.00
2022-10-21T11:28:08.905Z,4.65
2022-10-21T11:32:23.867Z,5.18
2022-10-21T11:36:37.178Z,5.97
2022-10-21T11:40:43.334Z,4.55
2022-10-21T11:45:01.599Z,5.55
2022-10-21T11:49:21.310Z,4.55
2022-10-21T11:53:39.924Z,4.65
2022-10-21T11:57:54.574Z,5.38
2022-10-21T12:02:07.699Z,5.70
2022-10-21T12:06:26.853Z,5.32
2022-10-21T12:10:36.102Z,4.55
2022-10-21T12:14:45.063Z,5.20
2022-10-21T12:18:52.699Z,5.43
2022-10-21T12:23:01.696Z,4.72
2022-10-21T12:27:14.413Z,5.03
2022-10-21T12:31:34.237Z,4.72
2022-10-21T12:35:50.262Z,5.80
2022-10-21T12:40:11.726Z,6.07
2022-10-21T12:44:24.802Z,6.18
2022-10-21T12:48:34.525Z,5.65
2022-10-21T12:52:39.498Z,6.03
2022-10-21T12:56:47.206Z,5.70
2022-10-21T13:00:59.057Z,5.97
2022-10-21T13:05:03.579Z,5.60
2022-10-21T13:09:46.857Z,5.57
2022-10-21T13:17:56.072Z,5.43
2022-10-21T13:22:11.291Z,5.00
2022-10-21T13:26:22.325Z,7.88
2022-10-21T13:30:30.400Z,6.38
2022-10-21T13:34:33.655Z,4.88
2022-10-21T13:38:47.453Z,5.97
2022-10-21T13:42:58.334Z,5.93
2022-10-21T13:47:19.844Z,5.43
2022-10-21T13:51:26.401Z,6.55
2022-10-21T13:55:30.919Z,6.03
2022-10-21T13:59:35.391Z,6.22
2022-10-21T14:03:38.548Z,5.05
2022-10-21T14:07:42.761Z,6.55
2022-10-21T14:11:51.580Z,6.28
2022-10-21T14:15:56.283Z,6.45
2022-10-21T14:20:09.254Z,7.75
2022-10-21T14:28:31.316Z,6.90
2022-10-21T14:32:35.613Z,5.82
2022-10-21T14:37:02.633Z,6.65
2022-10-21T14:41:09.359Z,5.65
2022-10-21T14:45:18.368Z,7.40
2022-10-21T14:49:27.412Z,6.32
2022-10-21T14:53:33.878Z,5.72
2022-10-21T14:57:42.244Z,5.65
2022-10-21T15:01:47.763Z,5.15
2022-10-21T15:05:50.802Z,6.57
2022-10-21T15:10:00.051Z,6.70
2022-10-21T15:14:24.534Z,6.85
2022-10-21T15:18:31.552Z,6.72
2022-10-21T15:22:38.674Z,6.15
2022-10-21T15:26:43.355Z,5.18
2022-10-21T15:30:46.461Z,6.72
2022-10-21T15:34:53.991Z,6.22
2022-10-21T15:38:57.625Z,6.72
2022-10-21T15:43:00.782Z,6.47
2022-10-21T15:47:08.800Z,6.50
2022-10-21T15:51:13.392Z,7.57
2022-10-21T15:55:17.545Z,8.68
2022-10-21T15:59:22.795Z,7.10
2022-10-21T16:03:25.917Z,6.40
2022-10-21T16:07:33.194Z,9.15
2022-10-21T16:11:41.057Z,8.23
2022-10-21T16:15:44.609Z,8.43
2022-10-21T16:19:48.072Z,8.38
2022-10-21T16:23:53.695Z,10.15
2022-10-21T16:27:57.025Z,9.27
2022-10-21T16:32:00.514Z,10.55
2022-10-21T16:36:05.105Z,8.52
2022-10-21T16:40:19.999Z,7.82
2022-10-21T16:44:23.125Z,7.93
2022-10-21T16:48:27.048Z,9.32
2022-10-21T16:52:30.425Z,9.90
2022-10-21T16:56:35.588Z,10.00
2022-10-21T17:00:39.116Z,9.93
2022-10-21T17:04:43.044Z,9.07
2022-10-21T17:08:46.066Z,9.30
2022-10-21T17:12:57.394Z,8.57
2022-10-21T17:17:00.722Z,9.52
2022-10-21T17:21:03.896Z,8.30
2022-10-21T17:25:07.625Z,9.75
2022-10-21T17:29:13.016Z,9.00
2022-10-21T17:33:16.368Z,9.48
2022-10-21T17:37:20.287Z,9.77
2022-10-21T17:41:23.755Z,8.43
2022-10-21T17:45:28.695Z,11.13
2022-10-21T17:49:31.683Z,11.05
2022-10-21T17:53:35.039Z,14.25
2022-10-21T17:57:38.419Z,15.73
2022-10-21T18:01:43.873Z,11.05
2022-10-21T18:05:48.494Z,14.10
2022-10-21T18:09:52.053Z,14.25
2022-10-21T18:13:56.227Z,13.18
2022-10-21T18:18:01.282Z,12.60
2022-10-21T18:22:05.527Z,11.90
2022-10-21T18:26:12.288Z,11.68
2022-10-21T18:30:15.751Z,11.52
2022-10-21T18:34:21.058Z,12.07
2022-10-21T18:38:24.165Z,11.88
2022-10-21T18:42:27.618Z,10.95
2022-10-21T18:46:31.803Z,12.38
2022-10-21T18:50:38.378Z,10.98
2022-10-21T18:54:41.453Z,11.02
2022-10-21T19:03:11.970Z,9.18
2022-10-21T19:07:17.042Z,9.13
2022-10-21T19:11:20.470Z,10.20
2022-10-21T19:15:23.835Z,8.45
2022-10-21T19:19:27.204Z,10.52
2022-10-21T19:23:33.727Z,8.73
2022-10-21T19:27:37.731Z,9.77
2022-10-21T19:31:41.592Z,11.48
2022-10-21T19:35:45.383Z,10.98
2022-10-21T19:39:50.631Z,9.93
2022-10-21T19:43:58.594Z,10.45
2022-10-21T19:48:02.606Z,13.00
2022-10-21T19:52:06.240Z,17.48
2022-10-21T19:56:10.865Z,11.73
2022-10-21T20:00:15.895Z,10.55
2022-10-21T20:04:19.400Z,10.35
2022-10-21T20:08:22.662Z,12.35
2022-10-21T20:12:27.759Z,12.15
2022-10-21T20:16:33.361Z,11.15
2022-10-21T20:20:37.084Z,10.68
2022-10-21T20:24:45.485Z,7.95
2022-10-21T20:28:51.600Z,10.13
2022-10-21T20:32:55.141Z,9.75
2022-10-21T20:36:58.179Z,9.75
2022-10-21T20:41:03.984Z,10.10
2022-10-21T20:45:09.803Z,9.77
2022-10-21T20:49:13.580Z,9.48
2022-10-21T20:53:17.023Z,9.13
2022-10-21T20:57:20.400Z,9.25
2022-10-21T21:01:27.081Z,9.80
2022-10-21T21:05:30.600Z,9.95
2022-10-21T21:10:03.980Z,9.10
2022-10-21T21:13:58.034Z,9.25
2022-10-21T21:18:04.149Z,9.20
2022-10-21T21:22:07.718Z,10.23
2022-10-21T21:26:13.973Z,9.45
2022-10-21T21:30:17.604Z,7.88
2022-10-21T21:34:21.963Z,8.75
2022-10-21T21:38:25.533Z,7.95
2022-10-21T21:42:28.984Z,8.43
2022-10-21T21:46:32.850Z,9.18
2022-10-21T21:50:37.308Z,9.20
2022-10-21T21:54:41.030Z,8.82
2022-10-21T21:58:44.498Z,8.90
2022-10-21T22:02:48.214Z,9.40
2022-10-21T22:06:52.933Z,10.90
2022-10-21T22:10:55.961Z,9.35
2022-10-21T22:14:59.394Z,9.43
2022-10-21T22:19:03.312Z,11.05
2022-10-21T22:23:08.453Z,9.63
2022-10-21T22:27:11.599Z,12.27
2022-10-21T22:31:17.762Z,10.52
2022-10-21T22:35:20.941Z,8.88
2022-10-21T22:39:26.143Z,9.80
2022-10-21T22:43:29.255Z,9.82
2022-10-21T22:47:32.311Z,10.10
2022-10-21T22:51:35.833Z,12.32
2022-10-21T22:55:40.975Z,9.38
2022-10-21T22:59:44.319Z,9.65
2022-10-21T23:03:47.787Z,7.93
2022-10-21T23:07:53.719Z,9.48
2022-10-21T23:11:58.091Z,8.18
2022-10-21T23:16:01.535Z,9.55
2022-10-21T23:20:05.699Z,10.15
2022-10-21T23:24:09.717Z,9.93
2022-10-21T23:28:14.163Z,9.48
2022-10-21T23:32:17.735Z,9.65
2022-10-21T23:36:21.189Z,9.07
2022-10-21T23:40:24.776Z,9.30
2022-10-21T23:44:30.112Z,9.73
2022-10-21T23:48:33.534Z,8.98
2022-10-21T23:52:37.333Z,10.05
2022-10-21T23:56:40.880Z,8.43
